Louisville, Alabama
Current Conditions -  °F | °C
As of 5:53 AM on Wednesday 26 Nov 2014 (Local Time) from KTOI Reporting Station
Clear Clear  
Wind Chill:   Ceiling: Unl
Heat Index:   Visibility: 10mi
Dew Point:   Wind: 8mph
Humidity: 76%   Direction: 310°NW
Pressure: 30.13"   Gusts: NA
Location:  31.78°N, 85.56°W
Report Text: KTOI 261153Z AUTO 31007KT 10SM CLR 04/00 A3013 RMK AO2 SLP202 T00390000 10100 20039 53010
Loading
Personal Weather Stations






























Interactive Weather Map New forecast layout! Learn more

10-Day Weather Forecast

Advertisements
Track Severe Weather on mobile